Time;durP1;ratioP1;P1;durP2;ratioP2;P2;SDS_P1;SDS_P2;PMS_P1;PMS_P2;Temp;Humidity;BMP_temperature;BMP_pressure;BME280_temperature;BME280_humidity;BME280_pressure;Samples;Min_cycle;Max_cycle;Signal;HPM_P1;HPM_P2
2021/10/01 00:00:42;;;;;;;19.95;11.35;;;;;;;13.00;100.00;102355.50;5115986;28;20027;-71
2021/10/01 00:03:40;;;;;;;20.95;11.10;;;;;;;13.23;100.00;102351.94;5116507;28;20019;-72
2021/10/01 00:06:26;;;;;;;18.92;11.55;;;;;;;12.77;100.00;102359.84;5116551;28;20024;-72
2021/10/01 00:09:11;;;;;;;24.20;11.90;;;;;;;12.63;100.00;102359.88;5115946;28;20110;-72
2021/10/01 00:11:57;;;;;;;19.95;12.00;;;;;;;12.99;100.00;102353.75;5116719;28;20027;-71
2021/10/01 00:14:44;;;;;;;19.85;11.98;;;;;;;12.60;100.00;102349.38;5115962;28;20031;-72
2021/10/01 00:17:29;;;;;;;17.25;11.18;;;;;;;12.86;100.00;102349.34;5115427;28;20031;-72
2021/10/01 00:20:15;;;;;;;19.80;11.98;;;;;;;13.05;100.00;102349.34;5115947;28;20375;-72
2021/10/01 00:23:01;;;;;;;21.45;12.18;;;;;;;12.48;100.00;102356.34;5116389;28;20032;-72
2021/10/01 00:25:47;;;;;;;18.10;11.85;;;;;;;12.59;100.00;102350.25;5116395;28;20435;-72
2021/10/01 00:28:33;;;;;;;16.63;11.60;;;;;;;12.27;100.00;102351.97;5100380;28;20444;-72
2021/10/01 00:31:18;;;;;;;17.33;12.02;;;;;;;12.37;100.00;102350.19;5116498;28;20164;-72
2021/10/01 00:34:06;;;;;;;18.15;11.18;;;;;;;12.63;100.00;102346.75;5116629;28;20024;-72
2021/10/01 00:36:51;;;;;;;20.75;12.10;;;;;;;12.39;100.00;102344.09;5116249;28;20023;-73
2021/10/01 00:39:37;;;;;;;19.88;12.43;;;;;;;12.33;100.00;102351.97;5106664;28;20027;-72
2021/10/01 00:42:23;;;;;;;16.35;11.57;;;;;;;12.27;100.00;102337.94;5116559;28;20028;-73
2021/10/01 00:45:09;;;;;;;20.05;12.73;;;;;;;12.29;100.00;102349.31;5115134;28;20020;-73
2021/10/01 00:47:55;;;;;;;32.83;13.85;;;;;;;12.31;100.00;102348.47;5114658;28;20387;-73
2021/10/01 00:50:41;;;;;;;30.17;13.75;;;;;;;12.79;100.00;102351.13;5100067;28;20353;-73
2021/10/01 00:53:28;;;;;;;26.83;14.32;;;;;;;12.63;100.00;102348.47;5114712;28;20496;-73
2021/10/01 00:56:14;;;;;;;28.75;16.45;;;;;;;11.97;100.00;102340.50;5115651;28;20042;-73
2021/10/01 00:59:00;;;;;;;31.30;17.67;;;;;;;12.14;100.00;102350.16;5114727;28;20047;-72
2021/10/01 01:01:46;;;;;;;36.72;19.10;;;;;;;12.24;100.00;102351.06;5114214;28;20106;-73
2021/10/01 01:04:32;;;;;;;33.13;20.45;;;;;;;11.78;100.00;102341.31;5115837;28;20055;-72
2021/10/01 01:07:50;;;;;;;33.47;21.65;;;;;;;12.20;100.00;102334.44;5113947;28;20027;-74
2021/10/01 01:10:48;;;;;;;32.22;21.00;;;;;;;12.10;100.00;102343.16;5115036;28;20066;-72
2021/10/01 01:13:46;;;;;;;35.65;22.98;;;;;;;12.13;100.00;102337.91;5115177;28;20023;-73
2021/10/01 01:16:36;;;;;;;34.13;22.00;;;;;;;12.04;100.00;102331.75;5114504;28;20110;-73
2021/10/01 01:19:51;;;;;;;34.13;21.58;;;;;;;12.57;100.00;102328.31;5113811;28;20088;-73
2021/10/01 01:23:11;;;;;;;34.50;21.67;;;;;;;12.50;100.00;102331.81;5114072;28;20023;-73
2021/10/01 01:26:19;;;;;;;37.72;21.05;;;;;;;12.30;100.00;102328.28;5113310;28;20031;-73
2021/10/01 01:29:22;;;;;;;32.42;21.25;;;;;;;12.26;100.00;102333.56;5100956;28;20092;-72
2021/10/01 01:32:18;;;;;;;32.42;20.98;;;;;;;12.72;100.00;102336.22;5114956;28;20081;-72
2021/10/01 01:35:18;;;;;;;30.90;20.63;;;;;;;12.56;100.00;102347.59;5114905;28;20024;-73
2021/10/01 01:38:14;;;;;;;31.42;19.15;;;;;;;12.61;100.00;102337.97;5100114;28;20046;-72
2021/10/01 01:41:04;;;;;;;28.38;17.17;;;;;;;12.62;100.00;102344.09;5114339;28;20028;-72
2021/10/01 01:43:53;;;;;;;27.38;17.27;;;;;;;12.60;100.00;102346.72;5113642;28;20142;-72
2021/10/01 01:46:41;;;;;;;23.25;15.90;;;;;;;12.81;100.00;102345.81;5113487;28;20130;-72
2021/10/01 01:49:31;;;;;;;21.38;15.48;;;;;;;12.90;100.00;102346.69;5113145;28;20039;-72
2021/10/01 01:52:18;;;;;;;22.85;16.25;;;;;;;12.67;100.00;102348.50;5098737;28;20036;-73
2021/10/01 01:55:05;;;;;;;22.60;15.27;;;;;;;12.57;100.00;102358.97;5114865;28;20130;-72
2021/10/01 01:57:52;;;;;;;23.33;16.02;;;;;;;11.91;100.00;102356.25;5114097;28;20476;-72
2021/10/01 02:00:38;;;;;;;23.65;15.90;;;;;;;12.12;100.00;102359.81;5114791;28;20341;-73
2021/10/01 02:03:25;;;;;;;22.25;15.60;;;;;;;11.86;100.00;102361.47;5113843;28;20091;-73
2021/10/01 02:06:12;;;;;;;23.50;15.80;;;;;;;12.21;100.00;102358.94;5100692;28;20056;-73
2021/10/01 02:08:59;;;;;;;24.02;15.10;;;;;;;12.19;100.00;102369.47;5098413;28;20023;-72
2021/10/01 02:11:48;;;;;;;22.27;14.45;;;;;;;12.27;100.00;102373.00;5098728;28;20034;-73
2021/10/01 02:14:39;;;;;;;20.20;14.57;;;;;;;11.97;100.00;102372.03;5114049;28;20038;-72
2021/10/01 02:17:27;;;;;;;21.80;15.35;;;;;;;11.85;100.00;102372.00;5113557;28;20031;-72
2021/10/01 02:20:15;;;;;;;25.75;14.48;;;;;;;12.14;100.00;102373.81;5098325;28;20067;-72
2021/10/01 02:23:02;;;;;;;22.55;14.75;;;;;;;11.71;100.00;102365.78;5113421;28;20027;-72
2021/10/01 02:28:59;;;;;;;23.15;15.10;;;;;;;11.30;100.00;102373.44;5114403;28;20020;-73
2021/10/01 02:31:55;;;;;;;22.73;15.50;;;;;;;11.93;100.00;102370.28;5113958;28;20039;-73
2021/10/01 02:34:45;;;;;;;23.38;14.35;;;;;;;11.87;100.00;102371.13;5098719;28;20034;-73
2021/10/01 02:37:31;;;;;;;24.92;14.95;;;;;;;11.46;100.00;102371.78;5101142;28;20035;-72
2021/10/01 06:10:16;;;;;;;18.42;12.52;;;;;;;12.94;100.00;102450.19;3234398;28;20047;-73
2021/10/01 06:13:02;;;;;;;20.42;12.68;;;;;;;12.91;100.00;102458.09;5098774;28;20377;-72
2021/10/01 06:15:47;;;;;;;20.15;12.90;;;;;;;12.83;100.00;102454.56;5113531;28;20103;-73
2021/10/01 06:18:33;;;;;;;22.23;12.93;;;;;;;12.68;100.00;102452.81;5100452;28;20024;-73
2021/10/01 06:21:19;;;;;;;31.70;22.13;;;;;;;12.69;100.00;102454.53;5112846;28;20015;-72
2021/10/01 06:24:05;;;;;;;20.30;12.10;;;;;;;12.84;100.00;102456.31;5099010;28;20435;-73
2021/10/01 06:26:51;;;;;;;19.23;11.77;;;;;;;13.20;100.00;102457.25;5113116;28;20031;-73
2021/10/01 06:29:37;;;;;;;23.08;14.18;;;;;;;13.32;100.00;102457.25;5099441;28;20023;-73
2021/10/01 06:32:23;;;;;;;28.33;14.35;;;;;;;13.26;100.00;102451.97;5098733;28;20452;-73
2021/10/01 06:35:09;;;;;;;22.80;12.57;;;;;;;13.51;100.00;102456.31;5114244;28;20027;-73
2021/10/01 06:37:55;;;;;;;25.52;12.07;;;;;;;12.89;100.00;102460.72;5098348;28;20035;-73
2021/10/01 06:40:41;;;;;;;24.17;12.40;;;;;;;13.62;100.00;102461.56;5112984;28;20458;-72
2021/10/01 06:43:29;;;;;;;19.67;11.55;;;;;;;13.45;100.00;102458.97;5112717;28;20031;-72
2021/10/01 06:46:25;;;;;;;19.20;10.80;;;;;;;13.83;100.00;102458.88;5098914;28;20027;-74
2021/10/01 07:36:03;;;;;;;30.17;10.38;;;;;;;15.37;93.95;102472.94;5113210;28;20024;-72
2021/10/01 08:21:05;;;;;;;17.08;8.77;;;;;;;17.67;74.94;102459.09;5096362;28;20448;-73
2021/10/01 08:23:56;;;;;;;18.02;8.75;;;;;;;18.23;71.19;102453.53;5095995;28;20093;-73
2021/10/01 08:26:43;;;;;;;13.77;8.23;;;;;;;18.30;69.68;102455.16;5095522;28;20035;-73
2021/10/01 08:29:29;;;;;;;22.13;8.88;;;;;;;18.62;66.12;102448.22;5095992;28;20028;-72
2021/10/01 08:32:15;;;;;;;12.38;7.97;;;;;;;18.49;67.07;102445.91;5095658;28;20106;-73
2021/10/01 08:35:02;;;;;;;15.85;8.23;;;;;;;18.04;66.42;102446.84;5094208;28;20052;-73
2021/10/01 08:37:49;;;;;;;18.38;7.90;;;;;;;18.40;64.44;102444.31;5094997;28;20104;-73
2021/10/01 08:40:35;;;;;;;13.48;7.20;;;;;;;18.73;62.93;102432.91;5078896;28;20016;-72
2021/10/01 08:43:23;;;;;;;9.68;7.03;;;;;;;19.03;62.25;102433.97;5095857;28;20020;-73
2021/10/01 08:46:09;;;;;;;13.75;7.80;;;;;;;18.88;61.49;102434.34;5079123;28;20142;-73
2021/10/01 08:48:59;;;;;;;16.67;7.68;;;;;;;18.88;63.13;102437.88;5095515;28;20364;-73
2021/10/01 08:51:45;;;;;;;14.25;7.60;;;;;;;19.46;61.31;102429.31;5094016;28;20024;-71
2021/10/01 08:54:31;;;;;;;20.92;7.63;;;;;;;19.64;59.75;102431.47;5095821;28;20360;-72
2021/10/01 08:57:17;;;;;;;12.60;8.05;;;;;;;19.66;58.94;102429.66;5095449;28;20024;-71
2021/10/01 09:00:14;;;;;;;19.70;7.60;;;;;;;19.59;58.76;102419.22;5095200;28;20042;-72
2021/10/01 09:02:59;;;;;;;14.77;7.03;;;;;;;19.24;60.90;102414.84;5093294;28;20055;-73
2021/10/01 09:05:45;;;;;;;13.68;7.95;;;;;;;19.50;60.98;102423.00;5094984;28;20023;-72
2021/10/01 09:08:33;;;;;;;18.98;8.10;;;;;;;19.65;60.71;102416.41;5094457;28;20034;-72
2021/10/01 09:11:26;;;;;;;15.02;6.85;;;;;;;19.57;58.75;102413.94;5106889;28;20055;-72
2021/10/01 09:14:18;;;;;;;10.73;7.07;;;;;;;19.12;60.27;102412.47;5100043;28;20107;-72
2021/10/01 09:17:10;;;;;;;11.32;6.50;;;;;;;19.22;61.07;102414.00;5115863;28;20552;-72
2021/10/01 09:19:57;;;;;;;13.75;7.13;;;;;;;19.34;59.13;102412.81;5115202;28;20028;-72
2021/10/01 09:22:44;;;;;;;10.95;6.00;;;;;;;19.79;59.00;102403.56;5115595;28;20038;-72
2021/10/01 09:25:30;;;;;;;15.32;6.40;;;;;;;19.59;57.45;102395.28;5114243;28;20051;-72
2021/10/01 09:28:16;;;;;;;11.68;5.75;;;;;;;19.75;58.09;102393.94;5114526;28;20031;-72
2021/10/01 09:31:01;;;;;;;11.85;5.45;;;;;;;20.15;55.64;102395.41;5100845;28;20031;-72
2021/10/01 09:33:47;;;;;;;7.38;5.28;;;;;;;19.75;56.20;102401.91;5114664;28;20451;-72
2021/10/01 09:36:34;;;;;;;15.13;6.22;;;;;;;19.49;56.40;102397.31;5100621;28;20036;-73
2021/10/01 09:39:30;;;;;;;6.47;5.32;;;;;;;19.01;58.60;102390.63;5114624;28;20046;-73
2021/10/01 09:42:17;;;;;;;9.93;5.40;;;;;;;19.36;57.53;102395.91;5114826;28;20363;-73
2021/10/01 09:45:06;;;;;;;14.73;5.80;;;;;;;18.65;60.21;102394.22;5114747;28;20360;-72
2021/10/01 09:47:52;;;;;;;9.65;5.20;;;;;;;19.56;56.94;102390.91;5085463;28;20024;-72
2021/10/01 09:50:38;;;;;;;9.38;4.80;;;;;;;19.28;56.77;102391.72;5114534;28;20024;-72
2021/10/01 09:53:23;;;;;;;11.10;5.13;;;;;;;18.71;57.32;102378.09;5114633;28;20027;-73
2021/10/01 09:56:28;;;;;;;10.63;5.22;;;;;;;19.22;57.13;102388.25;5114310;28;20115;-73
2021/10/01 09:59:23;;;;;;;14.40;4.90;;;;;;;19.17;56.84;102376.03;5114845;28;20024;-72
2021/10/01 10:02:10;;;;;;;11.73;4.68;;;;;;;19.35;57.11;102377.34;5114062;28;20031;-72
2021/10/01 10:04:56;;;;;;;7.32;4.68;;;;;;;19.51;56.16;102368.91;5114516;28;20035;-72
2021/10/01 10:07:47;;;;;;;8.52;4.72;;;;;;;19.88;55.77;102366.03;5115157;28;20451;-73
2021/10/01 10:10:44;;;;;;;6.47;4.60;;;;;;;19.93;56.44;102372.13;5114312;28;20122;-73
2021/10/01 10:13:51;;;;;;;6.57;4.45;;;;;;;19.38;54.71;102375.50;5114645;28;20035;-72
2021/10/01 10:16:39;;;;;;;11.35;8.93;;;;;;;18.62;58.53;102367.72;5114105;28;20341;-73
2021/10/01 10:19:30;;;;;;;7.05;4.57;;;;;;;19.22;57.43;102369.66;5113885;28;20023;-71
2021/10/01 10:22:16;;;;;;;7.75;4.90;;;;;;;19.04;58.47;102366.63;5114031;28;20118;-72
2021/10/01 10:25:02;;;;;;;8.73;4.90;;;;;;;19.46;57.88;102360.19;5113458;28;20027;-73
2021/10/01 10:27:48;;;;;;;7.85;4.38;;;;;;;20.00;55.34;102360.34;5114119;28;20038;-73
2021/10/01 10:30:34;;;;;;;9.15;4.70;;;;;;;19.96;54.07;102354.28;5114723;28;20123;-73
2021/10/01 10:33:38;;;;;;;7.45;3.80;;;;;;;19.75;54.09;102360.22;5114621;28;20039;-73
2021/10/01 10:36:47;;;;;;;5.68;4.40;;;;;;;19.89;54.26;102362.50;5114078;28;20123;-73
2021/10/01 10:39:34;;;;;;;6.03;3.80;;;;;;;19.26;52.61;102353.69;5098715;28;20467;-72
2021/10/01 10:42:32;;;;;;;8.27;4.55;;;;;;;19.77;52.47;102354.88;5113801;28;20163;-72
2021/10/01 10:45:24;;;;;;;6.88;4.20;;;;;;;19.59;51.77;102350.06;5113518;28;20340;-72
2021/10/01 10:48:18;;;;;;;8.23;3.75;;;;;;;19.40;51.72;102357.69;5114331;28;20111;-72
2021/10/01 10:51:04;;;;;;;7.20;3.45;;;;;;;18.98;52.44;102353.50;5099775;28;20096;-72
2021/10/01 10:54:06;;;;;;;4.30;3.60;;;;;;;18.45;54.42;102351.34;5099267;28;20088;-72
2021/10/01 10:57:32;;;;;;;8.10;3.30;;;;;;;18.83;53.53;102340.63;5099247;28;20345;-73
2021/10/01 11:00:29;;;;;;;6.32;3.38;;;;;;;19.64;51.55;102332.22;5017373;28;20041;-73
2021/10/01 11:03:19;;;;;;;6.22;3.47;;;;;;;19.52;51.10;102327.25;5003172;28;20113;-72
2021/10/01 11:06:08;;;;;;;7.43;4.82;;;;;;;20.00;50.89;102331.97;5117340;28;20032;-72
2021/10/01 11:09:12;;;;;;;5.13;3.38;;;;;;;20.37;48.18;102321.94;5103099;28;20380;-72
2021/10/01 11:11:59;;;;;;;7.93;3.47;;;;;;;20.20;48.81;102331.38;5103022;28;20055;-72
2021/10/01 11:14:45;;;;;;;5.55;3.33;;;;;;;20.23;49.38;102329.50;5117021;28;20031;-71
2021/10/01 11:17:31;;;;;;;7.07;3.65;;;;;;;20.09;49.37;102326.38;5102701;28;20023;-72
2021/10/01 11:20:37;;;;;;;8.05;3.80;;;;;;;19.96;49.67;102325.00;5103104;28;20019;-74
2021/10/01 11:23:23;;;;;;;5.82;3.60;;;;;;;20.00;49.11;102318.66;5117686;28;20024;-72
2021/10/01 11:26:08;;;;;;;4.82;3.35;;;;;;;20.47;48.69;102319.84;5117301;28;20460;-72
2021/10/01 11:28:54;;;;;;;7.45;3.70;;;;;;;20.90;47.75;102314.81;5117524;28;20039;-72
2021/10/01 11:31:42;;;;;;;4.65;3.35;;;;;;;21.11;46.65;102306.97;5103344;28;20028;-72
2021/10/01 11:35:02;;;;;;;7.28;3.67;;;;;;;20.29;48.56;102309.81;5102691;28;20020;-72
2021/10/01 11:37:50;;;;;;;4.90;3.38;;;;;;;19.31;48.73;102298.59;5117467;28;20038;-73
2021/10/01 11:40:36;;;;;;;4.53;3.33;;;;;;;19.99;48.46;102310.72;5117412;28;20467;-72
2021/10/01 11:43:22;;;;;;;7.60;3.78;;;;;;;19.42;49.28;102307.16;5102319;28;20039;-72
2021/10/01 11:46:08;;;;;;;5.85;3.75;;;;;;;19.59;49.77;102299.53;5117120;28;20034;-72
2021/10/01 11:48:54;;;;;;;4.97;3.60;;;;;;;19.91;49.00;102308.31;5116973;28;20035;-72
2021/10/01 11:51:40;;;;;;;7.78;4.35;;;;;;;20.49;47.37;102294.91;5116804;28;20106;-72
2021/10/01 11:54:26;;;;;;;12.13;4.88;;;;;;;20.84;46.91;102291.91;5117784;28;20360;-72
2021/10/01 11:57:13;;;;;;;12.52;4.10;;;;;;;20.46;46.54;102284.38;5117254;28;20444;-72
2021/10/01 12:00:02;;;;;;;6.07;4.15;;;;;;;20.79;45.37;102283.22;5117043;28;20019;-72
2021/10/01 12:02:50;;;;;;;7.00;3.90;;;;;;;21.72;43.59;102277.13;5117442;28;20051;-72
2021/10/01 12:05:36;;;;;;;9.75;3.90;;;;;;;21.30;44.15;102276.03;5102890;28;20031;-72
2021/10/01 12:08:29;;;;;;;9.77;4.10;;;;;;;20.97;44.70;102271.94;5101920;28;20455;-72
2021/10/01 12:11:24;;;;;;;7.25;4.60;;;;;;;20.82;43.71;102276.91;5116944;28;20107;-72
2021/10/01 12:14:14;;;;;;;10.52;4.47;;;;;;;21.00;43.64;102273.63;5116897;28;20024;-72
2021/10/01 12:17:06;;;;;;;11.10;4.88;;;;;;;20.78;44.02;102269.94;5101480;28;20020;-72
2021/10/01 12:19:59;;;;;;;5.72;5.00;;;;;;;21.61;42.67;102270.41;5100969;28;20028;-73
2021/10/01 12:22:44;;;;;;;7.82;5.38;;;;;;;20.97;43.67;102265.75;5101577;28;20020;-72
2021/10/01 12:25:30;;;;;;;8.75;5.00;;;;;;;20.99;43.75;102264.78;5101897;28;20348;-73
2021/10/01 12:28:18;;;;;;;11.50;7.43;;;;;;;20.48;45.64;102263.88;5116251;28;20024;-73
2021/10/01 12:31:04;;;;;;;12.13;8.73;;;;;;;20.11;46.64;102265.13;5101339;28;20032;-72
2021/10/01 12:33:50;;;;;;;16.50;8.88;;;;;;;19.90;47.14;102258.69;5116371;28;20481;-73
2021/10/01 12:36:37;;;;;;;13.02;8.80;;;;;;;20.26;47.86;102254.88;5116073;28;20046;-72
2021/10/01 12:39:26;;;;;;;13.43;8.15;;;;;;;19.49;46.40;102258.19;5116508;28;20038;-72
2021/10/01 12:42:15;;;;;;;10.07;7.53;;;;;;;19.51;46.72;102249.25;5116512;28;20065;-73
2021/10/01 12:45:04;;;;;;;12.60;9.25;;;;;;;19.60;45.96;102256.94;5115295;28;20447;-71
2021/10/01 12:47:50;;;;;;;14.38;9.35;;;;;;;20.51;45.45;102242.47;5116361;28;20031;-72
2021/10/01 12:50:36;;;;;;;10.98;7.43;;;;;;;20.69;44.50;102247.16;5100142;28;20520;-73
2021/10/01 12:53:22;;;;;;;9.57;7.40;;;;;;;20.39;45.69;102242.91;5115697;28;20032;-72
2021/10/01 12:56:18;;;;;;;11.48;7.50;;;;;;;21.09;44.66;102242.19;5115654;28;20051;-72
2021/10/01 12:59:04;;;;;;;10.55;7.05;;;;;;;20.80;44.73;102239.66;5116052;28;20077;-73
2021/10/01 13:02:18;;;;;;;10.70;6.30;;;;;;;21.41;44.58;102244.50;5116127;28;20367;-73
2021/10/01 13:05:10;;;;;;;10.93;7.30;;;;;;;21.16;44.27;102227.69;5116194;28;20494;-71
2021/10/01 13:07:58;;;;;;;10.23;6.88;;;;;;;21.12;44.54;102231.41;5116033;28;20035;-72
2021/10/01 13:10:53;;;;;;;11.55;7.18;;;;;;;21.10;43.79;102225.25;5114871;28;20122;-72
2021/10/01 13:13:40;;;;;;;11.13;6.90;;;;;;;21.23;44.35;102221.22;5115274;28;20031;-72
2021/10/01 13:16:26;;;;;;;14.50;7.30;;;;;;;21.19;44.36;102219.59;5115521;28;20015;-72
2021/10/01 13:19:15;;;;;;;9.65;7.05;;;;;;;20.75;45.41;102227.44;5115848;28;20020;-73
2021/10/01 13:22:01;;;;;;;10.27;7.43;;;;;;;21.32;44.96;102225.31;5100286;28;20356;-73
2021/10/01 13:24:55;;;;;;;9.50;7.00;;;;;;;20.32;46.42;102222.72;5115457;28;20035;-73
2021/10/01 13:27:48;;;;;;;11.43;6.70;;;;;;;19.36;47.30;102222.28;5099607;28;20062;-72
2021/10/01 13:30:35;;;;;;;13.18;7.38;;;;;;;19.90;47.05;102212.56;5115283;28;20057;-72
2021/10/01 13:33:23;;;;;;;9.60;6.53;;;;;;;20.51;46.62;102206.97;5100036;28;20020;-73
2021/10/01 13:36:09;;;;;;;10.70;6.88;;;;;;;19.98;47.44;102214.09;5100268;28;20024;-73
2021/10/01 13:38:55;;;;;;;13.18;7.18;;;;;;;19.94;46.00;102211.56;5114889;28;20019;-72
2021/10/01 13:41:42;;;;;;;9.75;7.25;;;;;;;20.02;46.96;102209.53;5114376;28;20364;-72
2021/10/01 13:44:28;;;;;;;13.55;7.18;;;;;;;20.13;46.48;102204.75;5115225;28;20024;-72
2021/10/01 13:47:14;;;;;;;13.43;7.25;;;;;;;20.43;46.63;102198.38;5115120;28;20061;-73
2021/10/01 13:50:00;;;;;;;14.85;7.70;;;;;;;20.58;45.88;102196.03;5114745;28;20035;-73
2021/10/01 13:52:49;;;;;;;16.73;8.20;;;;;;;20.67;45.96;102205.50;5115335;28;20047;-72
2021/10/01 13:55:35;;;;;;;12.63;8.82;;;;;;;20.69;46.06;102195.69;5099588;28;20038;-71
2021/10/01 13:58:22;;;;;;;15.18;8.57;;;;;;;20.94;45.98;102196.56;5114695;28;20020;-72
2021/10/01 14:01:08;;;;;;;13.73;8.50;;;;;;;20.90;45.25;102195.75;5100706;28;20019;-73
2021/10/01 14:03:54;;;;;;;16.50;9.27;;;;;;;20.64;46.71;102198.50;5114427;28;20081;-73
2021/10/01 14:06:39;;;;;;;15.80;10.05;;;;;;;20.69;45.76;102195.69;5114664;28;20038;-73
2021/10/01 14:09:25;;;;;;;17.98;12.77;;;;;;;20.61;46.22;102193.28;5114313;28;20057;-72
2021/10/01 14:12:13;;;;;;;15.45;11.13;;;;;;;20.87;45.48;102190.56;5113975;28;20056;-73
2021/10/01 14:14:59;;;;;;;14.43;9.40;;;;;;;19.62;45.61;102190.44;5112985;28;20082;-71
2021/10/01 14:17:45;;;;;;;15.15;9.65;;;;;;;19.79;45.98;102188.09;5115091;28;20023;-73
2021/10/01 14:20:31;;;;;;;12.02;8.85;;;;;;;19.53;46.18;102186.25;5099985;28;20023;-72
2021/10/01 14:23:17;;;;;;;14.90;8.90;;;;;;;19.68;46.15;102179.63;5100570;28;20023;-73
2021/10/01 14:26:03;;;;;;;13.15;8.90;;;;;;;19.44;46.42;102173.25;5114179;28;20096;-72
2021/10/01 14:28:49;;;;;;;13.93;9.30;;;;;;;20.10;46.25;102171.13;5114289;28;20375;-73
2021/10/01 14:31:35;;;;;;;16.50;10.00;;;;;;;20.24;46.05;102166.19;5114103;28;20028;-72
2021/10/01 14:34:20;;;;;;;16.05;10.05;;;;;;;20.00;46.49;102158.13;5118007;28;20058;-72
2021/10/01 14:37:06;;;;;;;14.60;9.88;;;;;;;19.82;47.33;102172.94;5118341;28;20027;-72
2021/10/01 14:39:52;;;;;;;16.40;9.93;;;;;;;20.06;47.43;102168.59;5118313;28;20047;-73
2021/10/01 14:42:38;;;;;;;13.90;10.35;;;;;;;20.14;48.12;102170.13;5103702;28;20027;-72
2021/10/01 14:45:24;;;;;;;13.55;9.40;;;;;;;20.11;48.32;102172.00;5117631;28;20024;-72
2021/10/01 14:48:10;;;;;;;14.82;9.77;;;;;;;20.37;47.75;102174.66;5118188;28;20023;-73
2021/10/01 14:50:56;;;;;;;15.05;9.70;;;;;;;20.08;48.48;102169.38;5118179;28;20024;-73
2021/10/01 14:53:42;;;;;;;17.38;9.68;;;;;;;19.46;49.20;102179.41;5118997;28;20042;-73
2021/10/01 14:56:29;;;;;;;17.17;9.60;;;;;;;19.23;49.27;102187.16;5117854;28;20429;-72
2021/10/01 14:59:15;;;;;;;19.42;9.23;;;;;;;19.26;47.60;102183.56;5103927;28;20019;-72
2021/10/01 15:02:01;;;;;;;16.40;9.00;;;;;;;19.19;47.94;102185.53;5118058;28;20023;-74
2021/10/01 15:04:46;;;;;;;14.90;9.02;;;;;;;19.11;46.63;102187.53;5103953;28;20034;-73
2021/10/01 15:07:32;;;;;;;16.60;9.60;;;;;;;19.11;46.91;102180.44;5102824;28;20027;-71
2021/10/01 15:10:18;;;;;;;14.73;9.43;;;;;;;19.62;46.10;102185.13;5117510;28;20059;-71
2021/10/01 15:13:04;;;;;;;20.27;9.40;;;;;;;19.28;46.56;102184.41;5118273;28;20079;-72
2021/10/01 15:15:50;;;;;;;19.05;9.13;;;;;;;18.87;45.88;102183.81;5116953;28;20026;-72
2021/10/01 15:18:36;;;;;;;19.00;9.10;;;;;;;18.54;46.50;102174.13;5117564;28;20110;-72
2021/10/01 15:21:22;;;;;;;19.13;10.30;;;;;;;18.50;46.45;102177.78;5117516;28;20023;-74
2021/10/01 15:24:09;;;;;;;16.58;9.65;;;;;;;18.52;46.75;102175.03;5117999;28;20027;-72
2021/10/01 15:26:54;;;;;;;17.65;8.88;;;;;;;18.47;46.44;102176.97;5102578;28;20023;-71
2021/10/01 15:29:58;;;;;;;16.33;10.10;;;;;;;18.83;46.77;102178.59;5117683;28;20027;-72
2021/10/01 15:32:46;;;;;;;13.77;9.00;;;;;;;18.70;46.35;102185.19;5117112;28;20030;-72
2021/10/01 15:35:32;;;;;;;22.52;8.98;;;;;;;18.54;46.98;102183.84;5118169;28;20084;-72
2021/10/01 15:38:18;;;;;;;16.23;8.70;;;;;;;18.68;47.21;102177.25;5117252;28;20098;-71
2021/10/01 15:41:03;;;;;;;12.05;7.80;;;;;;;18.51;46.39;102178.63;5117279;28;20020;-72
2021/10/01 15:43:49;;;;;;;15.02;7.95;;;;;;;18.58;47.18;102182.88;5116600;28;20028;-73
2021/10/01 15:46:35;;;;;;;16.50;7.90;;;;;;;18.62;47.50;102188.03;5102197;28;20346;-72
2021/10/01 15:49:21;;;;;;;16.05;8.25;;;;;;;18.79;46.96;102179.59;5117421;28;20111;-73
2021/10/01 15:52:07;;;;;;;16.85;7.65;;;;;;;18.43;47.25;102180.59;5116701;28;20028;-73
2021/10/01 15:54:53;;;;;;;19.73;8.32;;;;;;;18.67;47.79;102186.13;5102230;28;20023;-72
2021/10/01 15:57:39;;;;;;;22.15;7.18;;;;;;;18.49;48.12;102186.63;5116600;28;20111;-73
2021/10/01 16:00:25;;;;;;;15.88;7.35;;;;;;;18.52;48.69;102181.25;5102806;28;20104;-73
2021/10/01 16:03:13;;;;;;;16.85;7.93;;;;;;;18.52;48.53;102181.25;5116649;28;20076;-71
2021/10/01 16:06:02;;;;;;;18.45;8.50;;;;;;;18.62;48.96;102182.72;5115799;28;20032;-72
2021/10/01 16:08:47;;;;;;;15.40;7.70;;;;;;;18.67;48.94;102186.13;5101505;28;20034;-72
2021/10/01 16:11:34;;;;;;;16.80;8.30;;;;;;;18.26;50.65;102182.81;5116977;28;20063;-73
2021/10/01 16:14:19;;;;;;;12.77;8.57;;;;;;;18.10;51.62;102192.94;5100559;28;20053;-73
2021/10/01 16:17:05;;;;;;;16.88;8.70;;;;;;;18.03;52.32;102186.03;5116722;28;20024;-73
2021/10/01 16:19:51;;;;;;;20.38;10.07;;;;;;;18.31;52.42;102192.38;5119962;28;20038;-73
2021/10/01 16:22:39;;;;;;;27.75;10.25;;;;;;;18.29;52.53;102188.03;5116420;28;20451;-72
2021/10/01 16:25:26;;;;;;;18.25;10.07;;;;;;;18.43;51.78;102183.25;5116091;28;20363;-73
2021/10/01 16:28:12;;;;;;;17.73;8.77;;;;;;;18.17;52.66;102188.34;5100996;28;20102;-72
2021/10/01 16:30:58;;;;;;;19.67;9.23;;;;;;;18.36;52.33;102190.53;5116648;28;20392;-73
2021/10/01 16:33:44;;;;;;;17.58;9.35;;;;;;;18.37;52.80;102196.72;5115911;28;20104;-72
2021/10/01 16:36:30;;;;;;;18.30;9.70;;;;;;;17.74;54.71;102199.13;5115712;28;20034;-73
2021/10/01 16:39:19;;;;;;;20.88;9.68;;;;;;;17.83;54.80;102193.59;5115904;28;20023;-73
2021/10/01 16:42:05;;;;;;;18.63;10.60;;;;;;;18.19;54.67;102192.72;5101109;28;20032;-72
2021/10/01 16:44:51;;;;;;;17.50;10.05;;;;;;;18.13;55.01;102192.00;5115938;28;20057;-72
2021/10/01 16:47:37;;;;;;;15.50;9.55;;;;;;;17.91;54.99;102193.41;5115359;28;20089;-73
2021/10/01 16:50:23;;;;;;;17.63;9.15;;;;;;;17.63;56.05;102201.16;5115799;28;20039;-72
2021/10/01 16:53:09;;;;;;;19.38;9.60;;;;;;;17.80;56.35;102206.06;5101240;28;20032;-72
2021/10/01 16:55:55;;;;;;;23.10;10.15;;;;;;;17.73;56.72;102207.13;5115625;28;20115;-72
2021/10/01 16:58:40;;;;;;;22.48;11.45;;;;;;;17.55;58.06;102205.75;5115902;28;20455;-72
2021/10/01 17:01:26;;;;;;;18.23;9.77;;;;;;;17.49;57.88;102210.31;5100474;28;20114;-71
2021/10/01 17:04:12;;;;;;;21.05;10.52;;;;;;;17.36;59.40;102207.03;5115482;28;20035;-71
2021/10/01 17:06:58;;;;;;;21.65;9.50;;;;;;;17.26;60.10;102205.50;5101801;28;20371;-72
2021/10/01 17:09:44;;;;;;;16.50;9.70;;;;;;;17.41;59.33;102212.28;5100426;28;20400;-73
2021/10/01 17:12:29;;;;;;;20.92;10.10;;;;;;;16.88;62.53;102212.47;5101313;28;20044;-72
2021/10/01 17:15:15;;;;;;;22.52;10.38;;;;;;;17.08;62.60;102213.81;5113854;28;20043;-72
2021/10/01 17:18:01;;;;;;;22.00;10.65;;;;;;;17.17;60.11;102210.09;5114986;28;20024;-72
2021/10/01 17:20:47;;;;;;;26.30;11.82;;;;;;;17.15;58.60;102210.13;5100248;28;20361;-73
2021/10/01 17:23:32;;;;;;;25.98;11.85;;;;;;;17.25;58.71;102213.47;5100446;28;20051;-71
2021/10/01 17:26:18;;;;;;;18.08;11.45;;;;;;;17.11;60.72;102213.75;5114702;28;20042;-72
2021/10/01 17:29:04;;;;;;;32.10;12.23;;;;;;;16.92;62.72;102216.81;5115396;28;20038;-71
2021/10/01 17:31:51;;;;;;;30.05;13.32;;;;;;;17.13;62.24;102216.38;5115080;28;20027;-74
2021/10/01 17:34:36;;;;;;;27.77;13.18;;;;;;;16.91;62.83;102217.69;5114638;28;20028;-71
2021/10/01 17:37:22;;;;;;;28.50;13.32;;;;;;;16.69;64.79;102225.19;5115458;28;20042;-72
2021/10/01 17:40:09;;;;;;;24.90;13.05;;;;;;;16.62;65.96;102222.66;5114607;28;20031;-72
2021/10/01 17:42:56;;;;;;;29.05;13.65;;;;;;;16.60;67.17;102221.84;5115290;28;20023;-73
2021/10/01 17:45:42;;;;;;;30.52;13.02;;;;;;;16.77;67.82;102222.38;5115317;28;20081;-72
2021/10/01 17:48:27;;;;;;;33.50;14.20;;;;;;;16.50;71.66;102221.13;5100626;28;20031;-72
2021/10/01 17:51:14;;;;;;;34.42;14.57;;;;;;;16.41;72.20;102226.59;5114693;28;20031;-72
2021/10/01 17:54:00;;;;;;;28.92;15.27;;;;;;;16.37;74.86;102231.91;5114953;28;20046;-72